createdAt,value
2022-10-07T00:02:15.036Z,72.82
2022-10-07T00:04:46.361Z,72.73
2022-10-07T00:07:13.446Z,72.63
2022-10-07T00:09:39.971Z,72.35
2022-10-07T00:12:07.029Z,72.51
2022-10-07T00:14:33.693Z,72.73
2022-10-07T00:17:00.262Z,73.11
2022-10-07T00:19:27.252Z,72.99
2022-10-07T00:21:53.969Z,73.61
2022-10-07T00:24:20.438Z,73.88
2022-10-07T00:26:47.178Z,74.23
2022-10-07T00:29:13.890Z,73.54
2022-10-07T00:31:41.737Z,73.71
2022-10-07T00:34:08.422Z,73.96
2022-10-07T00:36:36.904Z,73.78
2022-10-07T00:39:08.954Z,73.31
2022-10-07T00:41:37.897Z,73.32
2022-10-07T00:44:32.469Z,73.55
2022-10-07T00:46:59.973Z,73.63
2022-10-07T00:49:27.397Z,73.21
2022-10-07T00:51:54.063Z,73.56
2022-10-07T00:54:20.813Z,73.83
2022-10-07T00:56:47.386Z,74.35
2022-10-07T00:59:14.233Z,74.34
2022-10-07T01:01:42.468Z,73.97
2022-10-07T01:04:09.999Z,73.69
2022-10-07T01:06:39.342Z,73.53
2022-10-07T01:09:09.792Z,73.85
2022-10-07T01:11:59.272Z,73.60
2022-10-07T01:14:53.636Z,73.16
2022-10-07T01:17:28.017Z,72.89
2022-10-07T01:20:00.682Z,72.52
2022-10-07T01:22:55.169Z,72.61
2022-10-07T01:25:33.825Z,72.47
2022-10-07T01:28:13.409Z,72.50
2022-10-07T01:30:42.108Z,72.53
2022-10-07T01:33:15.005Z,72.38
2022-10-07T01:35:42.951Z,72.67
2022-10-07T01:38:09.884Z,73.03
2022-10-07T01:40:40.890Z,73.37
2022-10-07T01:43:07.692Z,73.82
2022-10-07T01:45:35.506Z,73.68
2022-10-07T01:48:02.355Z,73.08
2022-10-07T01:50:29.150Z,72.78
2022-10-07T01:53:41.069Z,72.74
2022-10-07T01:56:21.325Z,73.20
2022-10-07T01:58:50.841Z,73.51
2022-10-07T02:02:04.424Z,73.49
2022-10-07T02:04:33.692Z,73.24
2022-10-07T02:07:17.236Z,73.99
2022-10-07T02:09:50.316Z,74.24
2022-10-07T02:13:08.268Z,73.44
2022-10-07T02:15:48.900Z,73.39
2022-10-07T02:18:17.219Z,72.59
2022-10-07T02:20:48.495Z,72.25
2022-10-07T02:23:15.034Z,72.60
2022-10-07T02:25:45.829Z,73.22
2022-10-07T02:28:12.637Z,73.70
2022-10-07T02:30:39.248Z,73.63
2022-10-07T02:33:06.427Z,74.07
2022-10-07T02:35:40.649Z,74.24
2022-10-07T02:38:10.210Z,74.42
2022-10-07T02:40:40.175Z,73.87
2022-10-07T02:43:15.495Z,73.57
2022-10-07T02:45:46.082Z,74.02
2022-10-07T02:48:19.349Z,74.43
2022-10-07T02:50:47.491Z,74.62
2022-10-07T02:53:13.971Z,75.13
2022-10-07T02:55:40.527Z,75.02
2022-10-07T02:58:07.332Z,75.24
2022-10-07T03:06:04.838Z,74.94
2022-10-07T03:08:31.360Z,74.43
2022-10-07T03:10:57.773Z,74.23
2022-10-07T03:13:32.924Z,74.42
2022-10-07T03:15:59.389Z,74.92
2022-10-07T03:18:29.622Z,75.07
2022-10-07T03:20:56.578Z,75.36
2022-10-07T03:23:24.041Z,75.14
2022-10-07T03:25:54.641Z,74.87
2022-10-07T03:28:21.940Z,75.44
2022-10-07T03:30:48.841Z,75.52
2022-10-07T03:33:16.377Z,74.98
2022-10-07T03:35:42.838Z,74.74
2022-10-07T03:38:10.653Z,74.75
2022-10-07T03:40:38.257Z,74.80
2022-10-07T03:43:05.459Z,74.96
2022-10-07T03:45:32.031Z,74.86
2022-10-07T03:47:59.432Z,74.34
2022-10-07T03:50:26.203Z,74.16
2022-10-07T03:52:52.783Z,74.14
2022-10-07T03:55:19.920Z,74.05
2022-10-07T03:57:57.078Z,73.69
2022-10-07T04:00:26.633Z,73.69
2022-10-07T04:02:53.307Z,73.22
2022-10-07T04:05:20.586Z,73.14
2022-10-07T04:07:48.146Z,72.79
2022-10-07T04:10:16.761Z,72.47
2022-10-07T04:12:43.973Z,72.34
2022-10-07T04:15:14.020Z,72.29
2022-10-07T04:17:41.397Z,72.33
2022-10-07T04:20:08.531Z,72.30
2022-10-07T04:22:35.632Z,72.38
2022-10-07T04:25:21.417Z,72.38
2022-10-07T04:27:54.687Z,72.62
2022-10-07T04:30:21.520Z,72.38
2022-10-07T04:32:50.645Z,72.05
2022-10-07T04:35:18.266Z,71.93
2022-10-07T04:37:44.942Z,71.88
2022-10-07T04:40:11.674Z,71.79
2022-10-07T04:42:57.185Z,71.73
2022-10-07T04:45:23.624Z,71.68
2022-10-07T04:47:51.615Z,71.56
2022-10-07T04:50:18.148Z,71.58
2022-10-07T04:52:44.686Z,71.47
2022-10-07T04:55:14.398Z,71.46
2022-10-07T04:57:41.321Z,71.64
2022-10-07T05:00:08.833Z,71.72
2022-10-07T05:02:35.783Z,71.65
2022-10-07T05:05:02.353Z,71.69
2022-10-07T05:07:28.793Z,71.65
2022-10-07T05:09:55.379Z,71.85
2022-10-07T05:12:21.909Z,71.99
2022-10-07T05:14:48.422Z,71.80
2022-10-07T05:17:15.071Z,71.74
2022-10-07T05:19:41.589Z,71.24
2022-10-07T05:22:08.054Z,70.78
2022-10-07T05:24:34.792Z,70.27
2022-10-07T05:27:01.886Z,69.55
2022-10-07T05:29:28.356Z,69.08
2022-10-07T05:31:55.007Z,67.96
2022-10-07T05:34:21.648Z,65.95
2022-10-07T05:36:48.185Z,65.72
2022-10-07T05:39:14.678Z,64.50
2022-10-07T05:41:45.603Z,61.89
2022-10-07T05:44:12.432Z,61.82
2022-10-07T05:46:40.235Z,60.52
2022-10-07T05:49:06.869Z,58.44
2022-10-07T05:51:33.447Z,57.49
2022-10-07T05:54:00.046Z,56.56
2022-10-07T05:56:26.604Z,57.90
2022-10-07T05:58:53.194Z,55.66
2022-10-07T06:01:23.605Z,56.31
2022-10-07T06:03:57.529Z,54.67
2022-10-07T06:06:24.522Z,52.88
2022-10-07T06:08:51.306Z,51.84
2022-10-07T06:11:37.130Z,50.15
2022-10-07T06:14:03.997Z,49.52
2022-10-07T06:16:30.709Z,47.57
2022-10-07T06:18:57.534Z,48.96
2022-10-07T06:21:28.613Z,45.32
2022-10-07T06:23:55.708Z,45.23
2022-10-07T06:26:22.707Z,43.96
2022-10-07T06:28:49.395Z,43.61
2022-10-07T06:31:17.726Z,42.09
2022-10-07T06:33:44.461Z,36.69
2022-10-07T06:36:12.273Z,37.66
2022-10-07T06:38:41.354Z,35.64
2022-10-07T06:41:08.933Z,35.92
2022-10-07T06:43:35.377Z,35.94
2022-10-07T06:46:03.731Z,34.14
2022-10-07T06:48:32.338Z,36.16
2022-10-07T06:50:59.144Z,34.80
2022-10-07T06:53:25.944Z,33.28
2022-10-07T06:55:54.828Z,33.51
2022-10-07T06:58:22.127Z,31.57
2022-10-07T07:00:50.246Z,29.02
2022-10-07T07:03:17.420Z,29.74
2022-10-07T07:05:45.789Z,29.09
2022-10-07T07:08:15.896Z,28.12
2022-10-07T07:10:43.121Z,27.05
2022-10-07T07:13:09.915Z,25.81
2022-10-07T07:15:36.630Z,26.67
2022-10-07T07:18:04.282Z,25.62
2022-10-07T07:20:35.841Z,24.71
2022-10-07T07:23:02.905Z,25.65
2022-10-07T07:25:29.482Z,23.43
2022-10-07T07:27:58.693Z,23.61
2022-10-07T07:30:25.461Z,24.80
2022-10-07T07:32:52.157Z,23.41
2022-10-07T07:35:18.579Z,22.40
2022-10-07T07:37:46.174Z,22.16
2022-10-07T07:40:13.166Z,23.34
2022-10-07T07:42:39.808Z,22.00
2022-10-07T07:45:08.859Z,22.59
2022-10-07T07:47:35.995Z,22.51
2022-10-07T07:50:03.805Z,21.64
2022-10-07T07:52:30.509Z,21.59
2022-10-07T07:54:59.195Z,21.58
2022-10-07T07:57:26.909Z,21.56
2022-10-07T07:59:54.705Z,22.06
2022-10-07T08:02:22.362Z,22.77
2022-10-07T08:04:49.195Z,23.91
2022-10-07T08:07:16.200Z,25.24
2022-10-07T08:09:43.186Z,26.36
2022-10-07T08:12:09.645Z,27.59
2022-10-07T08:14:37.909Z,28.52
2022-10-07T08:17:04.443Z,29.91
2022-10-07T08:19:30.861Z,30.95
2022-10-07T08:21:58.213Z,31.96
2022-10-07T08:24:28.021Z,32.67
2022-10-07T08:26:54.581Z,33.54
2022-10-07T08:29:21.817Z,34.34
2022-10-07T08:31:49.253Z,34.85
2022-10-07T08:34:15.701Z,35.42
2022-10-07T08:36:47.197Z,35.98
2022-10-07T08:39:14.552Z,36.50
2022-10-07T08:42:08.710Z,37.38
2022-10-07T08:44:40.223Z,38.02
2022-10-07T08:47:16.249Z,38.96
2022-10-07T08:49:44.888Z,39.17
2022-10-07T08:52:42.478Z,39.63
2022-10-07T08:55:20.389Z,40.44
2022-10-07T08:58:04.394Z,41.47
2022-10-07T09:00:50.736Z,41.68
2022-10-07T09:03:44.681Z,42.69
2022-10-07T09:06:26.466Z,43.04
2022-10-07T09:08:57.287Z,42.88
2022-10-07T09:11:25.920Z,42.74
2022-10-07T09:13:54.911Z,42.92
2022-10-07T09:16:43.218Z,42.96
2022-10-07T09:19:16.931Z,42.89
2022-10-07T09:21:53.934Z,43.27
2022-10-07T09:24:23.369Z,43.53
2022-10-07T09:26:56.065Z,43.89
2022-10-07T09:29:24.483Z,44.07
2022-10-07T09:31:50.961Z,44.08
2022-10-07T09:34:26.336Z,44.28
2022-10-07T09:37:12.123Z,44.35
2022-10-07T09:39:39.277Z,44.17
2022-10-07T09:42:06.810Z,44.37
2022-10-07T09:44:33.224Z,44.40
2022-10-07T09:47:00.078Z,44.24
2022-10-07T09:49:29.572Z,44.34
2022-10-07T09:52:24.766Z,44.35
2022-10-07T09:54:52.886Z,44.60
2022-10-07T09:57:23.575Z,44.82
2022-10-07T09:59:50.360Z,45.05
2022-10-07T10:02:24.408Z,45.25
2022-10-07T10:04:53.278Z,45.18
2022-10-07T10:07:27.436Z,44.95
2022-10-07T10:09:55.463Z,44.87
2022-10-07T10:12:22.363Z,44.85
2022-10-07T10:14:56.503Z,44.65
2022-10-07T10:17:34.785Z,44.50
2022-10-07T10:20:26.346Z,44.19
2022-10-07T10:22:52.918Z,44.08
2022-10-07T10:25:50.669Z,44.11
2022-10-07T10:28:39.371Z,44.07
2022-10-07T10:31:22.867Z,43.88
2022-10-07T10:34:06.850Z,43.87
2022-10-07T10:36:33.452Z,44.11
2022-10-07T10:39:03.753Z,44.01
2022-10-07T10:41:42.329Z,43.91
2022-10-07T10:44:39.747Z,44.00
2022-10-07T10:47:33.809Z,44.07
2022-10-07T10:50:29.013Z,43.79
2022-10-07T10:53:20.812Z,43.53
2022-10-07T10:56:05.467Z,43.49
2022-10-07T10:58:43.289Z,43.22
2022-10-07T11:01:19.158Z,43.44
2022-10-07T11:04:09.851Z,43.47
2022-10-07T11:06:37.180Z,43.46
2022-10-07T11:09:03.880Z,43.41
2022-10-07T11:11:30.537Z,43.62
2022-10-07T11:14:09.390Z,43.73
2022-10-07T11:16:44.897Z,43.53
2022-10-07T11:19:27.039Z,44.05
2022-10-07T11:21:54.113Z,44.29
2022-10-07T11:24:25.276Z,44.17
2022-10-07T11:26:58.972Z,44.45
2022-10-07T11:29:44.207Z,44.80
2022-10-07T11:32:17.727Z,45.10
2022-10-07T11:34:54.337Z,45.32
2022-10-07T11:37:43.784Z,45.58
2022-10-07T11:40:10.239Z,45.81
2022-10-07T11:42:40.497Z,46.01
2022-10-07T11:45:08.371Z,46.01
2022-10-07T11:47:36.633Z,45.89
2022-10-07T11:50:07.835Z,45.53
2022-10-07T11:52:38.152Z,45.52
2022-10-07T11:55:05.813Z,45.64
2022-10-07T11:57:34.646Z,45.68
2022-10-07T12:00:08.401Z,45.56
2022-10-07T12:02:43.149Z,45.59
2022-10-07T12:05:35.860Z,45.57
2022-10-07T12:08:18.237Z,45.70
2022-10-07T12:10:44.840Z,45.84
2022-10-07T12:13:11.478Z,45.99
2022-10-07T12:15:40.055Z,46.01
2022-10-07T12:18:06.728Z,45.99
2022-10-07T12:20:51.446Z,45.83
2022-10-07T12:23:22.327Z,45.91
2022-10-07T12:26:00.780Z,45.44
2022-10-07T12:28:37.694Z,45.81
2022-10-07T12:31:16.624Z,45.97
2022-10-07T12:33:46.666Z,46.14
2022-10-07T12:36:22.285Z,46.05
2022-10-07T12:38:58.870Z,46.19
2022-10-07T12:41:32.892Z,46.35
2022-10-07T12:44:23.517Z,46.25
2022-10-07T12:46:56.509Z,46.13
2022-10-07T12:49:30.408Z,46.31
2022-10-07T12:51:59.437Z,46.10
2022-10-07T12:54:33.272Z,46.22
2022-10-07T12:57:00.586Z,46.26
2022-10-07T12:59:48.639Z,46.49
2022-10-07T13:02:43.768Z,46.48
2022-10-07T13:05:48.739Z,46.61
2022-10-07T13:08:36.142Z,46.59
2022-10-07T13:11:30.158Z,46.75
2022-10-07T13:14:10.880Z,47.00
2022-10-07T13:16:39.795Z,47.09
2022-10-07T13:19:06.256Z,47.27
2022-10-07T13:21:44.290Z,47.54
2022-10-07T13:24:15.119Z,47.72
2022-10-07T13:26:43.546Z,47.73
2022-10-07T13:29:39.418Z,47.33
2022-10-07T13:32:09.856Z,47.30
2022-10-07T13:34:36.342Z,47.46
2022-10-07T13:37:03.017Z,47.56
2022-10-07T13:39:30.755Z,47.70
2022-10-07T13:41:58.633Z,47.68
2022-10-07T13:44:27.813Z,47.95
2022-10-07T13:47:05.122Z,48.21
2022-10-07T13:49:37.702Z,48.24
2022-10-07T13:52:06.996Z,48.53
2022-10-07T13:54:33.848Z,48.74
2022-10-07T13:57:02.523Z,49.16
2022-10-07T13:59:29.177Z,49.15
2022-10-07T14:01:58.301Z,49.08
2022-10-07T14:04:33.798Z,49.19
2022-10-07T14:07:12.473Z,49.47
2022-10-07T14:09:49.225Z,49.67
2022-10-07T14:12:21.439Z,49.98
2022-10-07T14:14:49.445Z,50.18
2022-10-07T14:17:39.706Z,50.32
2022-10-07T14:20:16.102Z,50.45
2022-10-07T14:22:43.232Z,50.73
2022-10-07T14:25:28.034Z,50.91
2022-10-07T14:27:55.566Z,50.94
2022-10-07T14:30:55.554Z,51.23
2022-10-07T14:33:59.003Z,51.40
2022-10-07T14:36:25.710Z,51.44
2022-10-07T14:38:52.556Z,51.69
2022-10-07T14:41:21.533Z,51.74
2022-10-07T14:43:49.370Z,51.87
2022-10-07T14:46:18.673Z,51.83
2022-10-07T14:48:46.150Z,51.87
2022-10-07T14:51:13.230Z,51.99
2022-10-07T14:53:40.685Z,52.34
2022-10-07T14:56:07.483Z,52.40
2022-10-07T14:58:34.447Z,52.55
2022-10-07T15:01:01.162Z,52.83
2022-10-07T15:03:29.762Z,52.90
2022-10-07T15:05:56.251Z,53.18
2022-10-07T15:08:22.665Z,53.18
2022-10-07T15:10:49.285Z,53.32
2022-10-07T15:13:15.831Z,53.52
2022-10-07T15:15:42.887Z,53.54
2022-10-07T15:18:11.763Z,53.73
2022-10-07T15:20:39.552Z,53.83
2022-10-07T15:23:09.379Z,54.13
2022-10-07T15:25:36.283Z,54.38
2022-10-07T15:28:02.890Z,54.59
2022-10-07T15:30:29.871Z,54.76
2022-10-07T15:32:57.860Z,55.08
2022-10-07T15:35:25.007Z,55.23
2022-10-07T15:37:51.572Z,55.35
2022-10-07T15:40:18.333Z,55.61
2022-10-07T15:42:45.380Z,55.88
2022-10-07T15:45:12.413Z,56.13
2022-10-07T15:47:39.349Z,56.19
2022-10-07T15:50:06.502Z,56.46
2022-10-07T15:52:33.342Z,56.79
2022-10-07T15:55:03.719Z,57.05
2022-10-07T15:57:33.029Z,57.01
2022-10-07T15:59:59.912Z,56.84
2022-10-07T16:02:26.540Z,57.73
2022-10-07T16:04:52.995Z,58.17
2022-10-07T16:07:19.454Z,58.61
2022-10-07T16:09:46.419Z,58.70
2022-10-07T16:12:13.554Z,59.02
2022-10-07T16:14:40.439Z,59.57
2022-10-07T16:17:06.992Z,60.08
2022-10-07T16:19:33.615Z,60.53
2022-10-07T16:22:00.114Z,60.83
2022-10-07T16:24:29.020Z,61.24
2022-10-07T16:26:58.862Z,61.67
2022-10-07T16:29:44.066Z,62.25
2022-10-07T16:32:10.864Z,62.33
2022-10-07T16:34:38.822Z,62.80
2022-10-07T16:37:06.174Z,63.00
2022-10-07T16:39:32.628Z,63.19
2022-10-07T16:42:00.043Z,63.38
2022-10-07T16:44:27.916Z,63.72
2022-10-07T16:46:56.918Z,63.84
2022-10-07T16:49:25.924Z,64.04
2022-10-07T16:51:53.185Z,63.49
2022-10-07T16:54:19.878Z,63.83
2022-10-07T16:56:48.209Z,63.83
2022-10-07T16:59:22.470Z,63.96
2022-10-07T17:01:55.416Z,63.76
2022-10-07T17:04:22.312Z,63.81
2022-10-07T17:06:49.221Z,63.63
2022-10-07T17:09:17.421Z,63.90
2022-10-07T17:11:44.515Z,63.84
2022-10-07T17:14:16.363Z,64.35
2022-10-07T17:16:44.861Z,64.75
2022-10-07T17:19:17.687Z,65.03
2022-10-07T17:21:45.607Z,64.98
2022-10-07T17:24:13.173Z,65.10
2022-10-07T17:26:40.397Z,65.29
2022-10-07T17:29:08.455Z,65.48
2022-10-07T17:31:36.504Z,65.65
2022-10-07T17:34:06.271Z,65.92
2022-10-07T17:36:34.413Z,66.14
2022-10-07T17:39:00.969Z,66.28
2022-10-07T17:41:34.854Z,66.67
2022-10-07T17:44:02.408Z,66.95
2022-10-07T17:46:31.456Z,67.30
2022-10-07T17:48:59.343Z,67.36
2022-10-07T17:51:28.189Z,67.35
2022-10-07T17:53:55.313Z,67.52
2022-10-07T17:56:22.650Z,67.70
2022-10-07T17:58:49.204Z,67.80
2022-10-07T18:01:19.085Z,68.35
2022-10-07T18:03:53.401Z,68.46
2022-10-07T18:06:20.351Z,68.49
2022-10-07T18:08:48.016Z,68.78
2022-10-07T18:11:16.060Z,68.74
2022-10-07T18:14:01.164Z,68.99
2022-10-07T18:16:27.926Z,69.35
2022-10-07T18:18:55.208Z,69.42
2022-10-07T18:21:22.496Z,69.14
2022-10-07T18:23:50.545Z,69.69
2022-10-07T18:26:17.312Z,69.98
2022-10-07T18:28:44.064Z,70.21
2022-10-07T18:31:12.054Z,70.24
2022-10-07T18:33:39.231Z,70.24
2022-10-07T18:36:10.529Z,70.66
2022-10-07T18:38:39.332Z,71.11
2022-10-07T18:41:07.216Z,71.14
2022-10-07T18:43:33.735Z,71.14
2022-10-07T18:46:08.654Z,71.06
2022-10-07T18:48:36.392Z,71.23
2022-10-07T18:51:03.060Z,71.54
2022-10-07T18:53:34.196Z,71.76
2022-10-07T18:56:04.685Z,71.81
2022-10-07T18:58:38.782Z,71.90
2022-10-07T19:01:08.912Z,71.81
2022-10-07T19:03:35.527Z,71.96
2022-10-07T19:06:06.324Z,72.12
2022-10-07T19:08:33.070Z,71.80
2022-10-07T19:11:06.456Z,71.98
2022-10-07T19:13:48.901Z,71.68
2022-10-07T19:16:23.105Z,71.77
2022-10-07T19:18:51.536Z,71.94
2022-10-07T19:21:19.987Z,71.98
2022-10-07T19:23:50.679Z,72.11
2022-10-07T19:26:21.383Z,71.86
2022-10-07T19:28:48.960Z,72.11
2022-10-07T19:31:20.015Z,72.28
2022-10-07T19:33:47.163Z,72.33
2022-10-07T19:36:14.113Z,72.40
2022-10-07T19:38:44.191Z,72.24
2022-10-07T19:41:12.308Z,72.31
2022-10-07T19:43:39.579Z,72.31
2022-10-07T19:46:06.501Z,72.57
2022-10-07T19:48:33.781Z,72.98
2022-10-07T19:51:01.353Z,73.19
2022-10-07T19:53:33.970Z,73.28
2022-10-07T19:56:17.311Z,73.17
2022-10-07T19:58:48.931Z,73.33
2022-10-07T20:01:21.366Z,73.68
2022-10-07T20:03:48.853Z,73.71
2022-10-07T20:06:15.815Z,73.99
2022-10-07T20:08:43.827Z,74.10
2022-10-07T20:11:10.761Z,74.01
2022-10-07T20:13:37.908Z,74.16
2022-10-07T20:16:14.906Z,74.21
2022-10-07T20:18:41.522Z,74.12
2022-10-07T20:21:11.336Z,73.72
2022-10-07T20:23:40.383Z,73.44
2022-10-07T20:26:27.198Z,73.42
2022-10-07T20:28:55.569Z,72.89
2022-10-07T20:31:23.385Z,72.50
2022-10-07T20:33:51.624Z,72.50
2022-10-07T20:36:19.915Z,72.52
2022-10-07T20:39:05.616Z,72.60
2022-10-07T20:41:50.842Z,72.72
2022-10-07T20:44:17.712Z,72.91
2022-10-07T20:46:44.397Z,73.10
2022-10-07T20:49:23.148Z,73.05
2022-10-07T20:51:53.203Z,72.96
2022-10-07T20:54:20.346Z,72.85
2022-10-07T20:56:47.448Z,73.16
2022-10-07T20:59:14.268Z,73.12
2022-10-07T21:01:40.885Z,72.77
2022-10-07T21:04:08.267Z,72.37
2022-10-07T21:06:34.799Z,72.77
2022-10-07T21:09:01.368Z,72.79
2022-10-07T21:11:28.018Z,73.02
2022-10-07T21:13:57.381Z,73.25
2022-10-07T21:16:24.482Z,73.92
2022-10-07T21:18:51.297Z,74.56
2022-10-07T21:21:18.190Z,75.15
2022-10-07T21:23:45.536Z,75.13
2022-10-07T21:26:12.438Z,74.37
2022-10-07T21:28:39.508Z,74.00
2022-10-07T21:31:08.606Z,74.14
2022-10-07T21:33:36.436Z,74.38
2022-10-07T21:36:04.251Z,74.31
2022-10-07T21:38:33.889Z,74.11
2022-10-07T21:41:00.948Z,73.48
2022-10-07T21:43:27.994Z,73.39
2022-10-07T21:46:02.773Z,73.50
2022-10-07T21:48:30.150Z,73.65
2022-10-07T21:50:56.900Z,73.72
2022-10-07T21:53:23.723Z,73.41
2022-10-07T21:55:50.469Z,73.23
2022-10-07T21:58:17.000Z,73.23
2022-10-07T22:00:43.774Z,73.36
2022-10-07T22:03:13.188Z,73.88
2022-10-07T22:05:40.597Z,73.70
2022-10-07T22:08:29.638Z,73.51
2022-10-07T22:11:00.632Z,73.46
2022-10-07T22:13:28.203Z,73.79
2022-10-07T22:15:54.808Z,73.75
2022-10-07T22:18:21.991Z,73.95
2022-10-07T22:20:48.435Z,73.83
2022-10-07T22:23:15.258Z,73.69
2022-10-07T22:25:42.049Z,73.37
2022-10-07T22:28:08.526Z,73.50
2022-10-07T22:30:39.599Z,73.30
2022-10-07T22:33:06.623Z,73.14
2022-10-07T22:35:35.299Z,73.29
2022-10-07T22:38:02.448Z,73.47
2022-10-07T22:40:29.029Z,73.71
2022-10-07T22:42:55.913Z,73.88
2022-10-07T22:45:22.966Z,74.00
2022-10-07T22:47:50.321Z,74.41
2022-10-07T22:50:19.889Z,74.18
2022-10-07T22:52:47.876Z,73.85
2022-10-07T22:55:17.991Z,73.59
2022-10-07T22:57:44.422Z,73.61
2022-10-07T23:00:12.226Z,73.87
2022-10-07T23:02:38.728Z,74.03
2022-10-07T23:05:05.994Z,74.74
2022-10-07T23:07:32.857Z,77.00
2022-10-07T23:09:59.385Z,77.94
2022-10-07T23:12:25.885Z,78.17
2022-10-07T23:14:52.665Z,79.05
2022-10-07T23:17:19.425Z,79.76
2022-10-07T23:19:45.919Z,80.00
2022-10-07T23:22:12.991Z,79.93
2022-10-07T23:24:39.631Z,78.73
2022-10-07T23:27:06.148Z,76.43
2022-10-07T23:29:33.299Z,75.63
2022-10-07T23:31:59.992Z,75.91
2022-10-07T23:34:27.503Z,75.02
2022-10-07T23:36:55.370Z,76.12
2022-10-07T23:39:22.598Z,74.87
2022-10-07T23:41:49.272Z,74.14
2022-10-07T23:44:16.057Z,73.90
2022-10-07T23:46:42.837Z,73.86
2022-10-07T23:49:09.351Z,73.83
2022-10-07T23:51:36.018Z,73.84
2022-10-07T23:54:03.189Z,73.62
2022-10-07T23:56:30.102Z,73.36
2022-10-07T23:58:56.955Z,73.36
